createdAt,value
2018-08-23T00:01:38.649Z,3.47
2018-08-23T00:04:11.365Z,3.43
2018-08-23T00:06:54.842Z,3.90
2018-08-23T00:09:25.377Z,3.67
2018-08-23T00:11:56.118Z,3.87
2018-08-23T00:14:28.004Z,3.80
2018-08-23T00:16:58.714Z,3.63
2018-08-23T00:19:30.632Z,4.07
2018-08-23T00:22:01.198Z,4.00
2018-08-23T00:24:31.853Z,4.00
2018-08-23T00:27:02.620Z,3.50
2018-08-23T00:29:33.948Z,3.83
2018-08-23T00:32:05.503Z,4.27
2018-08-23T00:34:39.485Z,3.80
2018-08-23T00:37:10.664Z,3.93
2018-08-23T00:39:41.517Z,3.83
2018-08-23T00:42:13.135Z,3.53
2018-08-23T00:45:03.328Z,3.77
2018-08-23T00:47:34.613Z,3.77
2018-08-23T00:50:06.469Z,3.57
2018-08-23T00:52:50.536Z,4.10
2018-08-23T00:55:31.901Z,3.73
2018-08-23T00:58:02.392Z,3.77
2018-08-23T01:00:34.224Z,3.70
2018-08-23T01:03:05.657Z,3.87
2018-08-23T01:05:40.233Z,4.27
2018-08-23T01:08:11.113Z,4.27
2018-08-23T01:10:41.724Z,3.77
2018-08-23T01:13:12.265Z,4.07
2018-08-23T01:15:47.217Z,4.90
2018-08-23T01:18:19.164Z,4.60
2018-08-23T01:20:52.335Z,4.10
2018-08-23T01:23:22.966Z,4.20
2018-08-23T01:25:53.854Z,4.77
2018-08-23T01:28:24.385Z,4.50
2018-08-23T01:30:54.913Z,4.00
2018-08-23T01:33:25.450Z,4.10
2018-08-23T01:35:56.084Z,5.60
2018-08-23T01:38:26.689Z,4.27
2018-08-23T01:41:01.361Z,4.10
2018-08-23T01:43:32.065Z,4.97
2018-08-23T01:46:03.490Z,4.67
2018-08-23T01:48:34.342Z,4.70
2018-08-23T01:51:05.398Z,5.43
2018-08-23T01:53:38.821Z,5.10
2018-08-23T01:56:09.767Z,5.10
2018-08-23T01:58:40.412Z,4.80
2018-08-23T02:01:16.830Z,5.50
2018-08-23T02:03:47.602Z,5.13
2018-08-23T02:06:18.897Z,5.63
2018-08-23T02:08:49.464Z,5.60
2018-08-23T02:11:20.032Z,5.53
2018-08-23T02:13:50.864Z,5.57
2018-08-23T02:16:22.741Z,5.60
2018-08-23T02:18:53.461Z,5.37
2018-08-23T02:21:24.122Z,5.87
2018-08-23T02:23:54.729Z,6.20
2018-08-23T02:26:25.565Z,6.07
2018-08-23T02:28:56.121Z,5.77
2018-08-23T02:31:27.485Z,6.30
2018-08-23T02:33:57.989Z,6.10
2018-08-23T02:36:28.596Z,5.93
2018-08-23T02:39:04.902Z,6.10
2018-08-23T02:41:35.913Z,6.07
2018-08-23T02:44:06.437Z,5.50
2018-08-23T02:46:36.960Z,5.80
2018-08-23T02:49:07.586Z,5.87
2018-08-23T02:51:43.343Z,5.87
2018-08-23T02:54:14.905Z,6.87
2018-08-23T02:56:55.318Z,6.17
2018-08-23T02:59:26.313Z,6.27
2018-08-23T03:01:58.209Z,6.07
2018-08-23T03:04:29.973Z,6.30
2018-08-23T03:07:04.557Z,6.50
2018-08-23T03:09:37.061Z,6.47
2018-08-23T03:12:16.980Z,5.90
2018-08-23T03:14:48.028Z,6.27
2018-08-23T03:17:25.833Z,6.00
2018-08-23T03:20:04.618Z,6.00
2018-08-23T03:22:35.797Z,5.63
2018-08-23T03:25:09.128Z,6.33
2018-08-23T03:27:39.822Z,6.53
2018-08-23T03:30:12.238Z,5.93
2018-08-23T03:32:42.957Z,6.63
2018-08-23T03:35:13.457Z,6.40
2018-08-23T03:37:44.704Z,6.37
2018-08-23T03:40:16.365Z,6.50
2018-08-23T03:42:47.881Z,6.47
2018-08-23T03:45:23.501Z,6.97
2018-08-23T03:47:55.565Z,6.53
2018-08-23T03:50:26.164Z,6.30
2018-08-23T03:52:58.129Z,6.73
2018-08-23T03:55:28.720Z,6.70
2018-08-23T03:58:02.025Z,8.47
2018-08-23T04:00:37.775Z,7.00
2018-08-23T04:03:20.956Z,6.23
2018-08-23T04:05:51.689Z,7.00
2018-08-23T04:08:22.276Z,6.30
2018-08-23T04:10:53.013Z,24.40
2018-08-23T04:13:23.702Z,26.90
2018-08-23T04:15:54.477Z,15.77
2018-08-23T04:18:25.240Z,9.13
2018-08-23T04:20:57.320Z,8.00
2018-08-23T04:23:27.769Z,6.77
2018-08-23T04:25:58.473Z,6.47
2018-08-23T04:28:29.017Z,6.63
2018-08-23T04:30:59.879Z,7.47
2018-08-23T04:33:34.252Z,6.50
2018-08-23T04:36:05.772Z,7.17
2018-08-23T04:38:47.642Z,6.47
2018-08-23T04:41:18.448Z,7.43
2018-08-23T04:43:49.253Z,7.50
2018-08-23T04:46:24.381Z,6.70
2018-08-23T04:48:54.993Z,6.70
2018-08-23T04:51:25.750Z,9.70
2018-08-23T04:53:56.366Z,12.83
2018-08-23T04:56:28.493Z,10.97
2018-08-23T04:58:59.308Z,8.27
2018-08-23T05:01:30.005Z,14.13
2018-08-23T05:04:00.743Z,10.50
2018-08-23T05:06:31.406Z,8.10
2018-08-23T05:09:01.984Z,7.97
2018-08-23T05:11:32.813Z,12.53
2018-08-23T05:14:03.648Z,8.50
2018-08-23T05:16:34.381Z,7.47
2018-08-23T05:19:04.901Z,12.43
2018-08-23T05:21:35.484Z,13.50
2018-08-23T05:24:11.069Z,11.93
2018-08-23T05:26:42.068Z,10.90
2018-08-23T05:29:12.768Z,8.57
2018-08-23T05:31:43.352Z,8.40
2018-08-23T05:34:13.931Z,6.80
2018-08-23T05:36:44.801Z,7.40
2018-08-23T05:39:15.561Z,8.23
2018-08-23T05:41:46.237Z,7.27
2018-08-23T05:44:18.893Z,6.83
2018-08-23T05:46:55.293Z,6.13
2018-08-23T05:49:26.795Z,6.13
2018-08-23T05:51:59.999Z,6.43
2018-08-23T05:54:30.617Z,6.93
2018-08-23T05:57:01.258Z,6.27
2018-08-23T05:59:31.873Z,6.27
2018-08-23T06:02:02.617Z,6.40
2018-08-23T06:04:43.205Z,6.43
2018-08-23T06:07:14.120Z,5.93
2018-08-23T06:09:44.742Z,5.70
2018-08-23T06:12:15.545Z,5.83
2018-08-23T06:14:46.103Z,5.13
2018-08-23T06:17:16.966Z,5.53
2018-08-23T06:19:47.502Z,4.30
2018-08-23T06:22:18.188Z,4.90
2018-08-23T06:24:48.779Z,4.67
2018-08-23T06:27:19.502Z,5.57
2018-08-23T06:29:50.202Z,5.50
2018-08-23T06:32:20.724Z,4.63
2018-08-23T06:34:52.825Z,5.57
2018-08-23T06:37:23.821Z,5.00
2018-08-23T06:39:54.401Z,4.70
2018-08-23T06:42:59.953Z,5.30
2018-08-23T06:45:30.589Z,4.90
2018-08-23T06:48:02.576Z,5.03
2018-08-23T06:50:33.398Z,4.53
2018-08-23T06:53:04.179Z,4.67
2018-08-23T06:55:36.300Z,4.80
2018-08-23T06:58:07.068Z,5.43
2018-08-23T07:00:37.830Z,5.40
2018-08-23T07:03:09.185Z,5.33
2018-08-23T07:05:39.710Z,4.63
2018-08-23T07:08:10.501Z,4.73
2018-08-23T07:10:41.150Z,4.77
2018-08-23T07:13:12.808Z,4.67
2018-08-23T07:15:51.673Z,5.17
2018-08-23T07:18:22.549Z,4.73
2018-08-23T07:20:52.975Z,4.87
2018-08-23T07:23:35.709Z,4.77
2018-08-23T07:26:08.965Z,4.97
2018-08-23T07:28:39.770Z,5.73
2018-08-23T07:31:10.428Z,5.77
2018-08-23T07:33:42.797Z,4.60
2018-08-23T07:36:32.228Z,4.97
2018-08-23T07:39:04.457Z,5.70
2018-08-23T07:41:35.230Z,5.40
2018-08-23T07:44:06.718Z,4.17
2018-08-23T07:46:37.325Z,5.28
2018-08-23T07:49:09.422Z,5.15
2018-08-23T07:51:40.218Z,5.40
2018-08-23T07:54:15.129Z,5.10
2018-08-23T07:56:45.838Z,4.20
2018-08-23T07:59:16.692Z,5.17
2018-08-23T08:01:47.349Z,4.87
2018-08-23T08:04:18.979Z,4.37
2018-08-23T08:06:49.453Z,4.80
2018-08-23T08:09:28.056Z,4.90
2018-08-23T08:12:01.813Z,5.33
2018-08-23T08:14:36.391Z,5.40
2018-08-23T08:17:17.357Z,4.87
2018-08-23T08:19:56.840Z,4.85
2018-08-23T08:22:27.610Z,4.50
2018-08-23T08:25:09.957Z,5.92
2018-08-23T08:27:41.129Z,4.90
2018-08-23T08:30:14.236Z,4.70
2018-08-23T08:32:45.209Z,4.72
2018-08-23T08:35:18.022Z,4.60
2018-08-23T08:37:50.041Z,4.53
2018-08-23T08:40:24.241Z,4.22
2018-08-23T08:42:54.901Z,4.70
2018-08-23T08:45:28.721Z,4.55
2018-08-23T08:48:17.562Z,3.65
2018-08-23T08:51:07.377Z,4.67
2018-08-23T08:53:37.981Z,4.62
2018-08-23T08:56:09.109Z,3.98
2018-08-23T08:58:39.961Z,4.15
2018-08-23T09:01:10.874Z,4.28
2018-08-23T09:03:41.530Z,3.95
2018-08-23T09:06:16.267Z,4.55
2018-08-23T09:08:46.917Z,4.85
2018-08-23T09:11:18.289Z,4.40
2018-08-23T09:13:49.029Z,4.37
2018-08-23T09:16:23.064Z,4.08
2018-08-23T09:19:03.197Z,5.10
2018-08-23T09:21:34.129Z,5.20
2018-08-23T09:24:25.701Z,5.17
2018-08-23T09:26:57.557Z,4.75
2018-08-23T09:29:38.981Z,4.45
2018-08-23T09:32:19.781Z,5.85
2018-08-23T09:34:54.365Z,4.10
2018-08-23T09:37:25.296Z,5.15
2018-08-23T09:39:56.126Z,5.47
2018-08-23T09:42:30.841Z,7.70
2018-08-23T09:45:15.657Z,7.58
2018-08-23T09:47:46.865Z,5.00
2018-08-23T09:50:18.259Z,4.45
2018-08-23T09:52:50.928Z,11.40
2018-08-23T09:55:24.441Z,4.30
2018-08-23T09:57:55.233Z,9.08
2018-08-23T10:00:26.053Z,4.67
2018-08-23T10:03:01.733Z,4.65
2018-08-23T10:05:37.353Z,7.47
2018-08-23T10:08:13.106Z,5.90
2018-08-23T10:10:48.607Z,4.25
2018-08-23T10:13:25.360Z,4.33
2018-08-23T10:16:00.917Z,4.10
2018-08-23T10:18:36.476Z,4.62
2018-08-23T10:21:07.089Z,4.40
2018-08-23T10:23:39.068Z,4.10
2018-08-23T10:26:28.837Z,3.75
2018-08-23T10:28:59.714Z,9.88
2018-08-23T10:31:30.425Z,15.00
2018-08-23T10:34:01.137Z,4.78
2018-08-23T10:36:31.670Z,4.53
2018-08-23T10:39:03.877Z,8.43
2018-08-23T10:41:34.637Z,4.90
2018-08-23T10:44:05.577Z,4.20
2018-08-23T10:46:41.194Z,6.37
2018-08-23T10:49:12.010Z,9.18
2018-08-23T10:51:42.670Z,8.38
2018-08-23T10:54:14.146Z,4.00
2018-08-23T10:56:44.769Z,4.15
2018-08-23T10:59:15.482Z,4.40
2018-08-23T11:01:46.154Z,4.08
2018-08-23T11:04:16.969Z,4.00
2018-08-23T11:06:52.653Z,4.10
2018-08-23T11:09:28.194Z,3.90
2018-08-23T11:11:58.893Z,3.67
2018-08-23T11:14:34.500Z,3.47
2018-08-23T11:17:10.219Z,3.65
2018-08-23T11:19:47.250Z,3.58
2018-08-23T11:22:17.720Z,3.58
2018-08-23T11:24:48.498Z,3.70
2018-08-23T11:27:19.236Z,3.33
2018-08-23T11:29:49.839Z,3.75
2018-08-23T11:32:20.415Z,3.62
2018-08-23T11:34:50.946Z,3.67
2018-08-23T11:37:41.145Z,5.17
2018-08-23T11:40:32.941Z,3.75
2018-08-23T11:43:03.713Z,3.55
2018-08-23T11:45:34.934Z,3.85
2018-08-23T11:48:05.289Z,4.12
2018-08-23T11:50:35.593Z,4.42
2018-08-23T11:53:06.848Z,3.92
2018-08-23T11:55:36.964Z,3.58
2018-08-23T11:58:09.250Z,4.10
2018-08-23T12:00:40.041Z,4.10
2018-08-23T12:03:10.140Z,4.28
2018-08-23T12:05:41.576Z,4.05
2018-08-23T12:08:12.481Z,3.83
2018-08-23T12:10:42.728Z,3.27
2018-08-23T12:13:13.134Z,3.77
2018-08-23T12:15:43.501Z,3.40
2018-08-23T12:18:14.393Z,3.70
2018-08-23T12:20:44.974Z,3.60
2018-08-23T12:23:16.020Z,4.30
2018-08-23T12:25:46.122Z,3.33
2018-08-23T12:28:21.608Z,3.85
2018-08-23T12:30:52.425Z,3.77
2018-08-23T12:33:22.675Z,4.45
2018-08-23T12:35:52.706Z,3.62
2018-08-23T12:38:30.143Z,4.08
2018-08-23T12:41:05.430Z,4.80
2018-08-23T12:43:46.470Z,4.10
2018-08-23T12:46:17.721Z,3.60
2018-08-23T12:48:48.889Z,4.10
2018-08-23T12:51:19.501Z,4.37
2018-08-23T12:53:50.250Z,5.97
2018-08-23T12:56:21.006Z,4.10
2018-08-23T12:58:51.686Z,4.15
2018-08-23T13:01:22.474Z,4.25
2018-08-23T13:03:52.949Z,3.80
2018-08-23T13:06:23.907Z,4.12
2018-08-23T13:08:54.648Z,3.60
2018-08-23T13:11:25.421Z,3.95
2018-08-23T13:13:56.061Z,3.75
2018-08-23T13:16:27.013Z,4.05
2018-08-23T13:18:57.629Z,4.62
2018-08-23T13:21:28.526Z,3.65
2018-08-23T13:23:59.312Z,4.05
2018-08-23T13:26:35.306Z,3.55
2018-08-23T13:29:05.826Z,4.28
2018-08-23T13:31:36.589Z,3.77
2018-08-23T13:34:07.290Z,4.05
2018-08-23T13:36:38.240Z,4.08
2018-08-23T13:39:12.504Z,3.60
2018-08-23T13:41:43.265Z,3.50
2018-08-23T13:44:13.901Z,3.90
2018-08-23T13:46:44.761Z,3.98
2018-08-23T13:49:15.361Z,3.42
2018-08-23T13:51:46.237Z,4.50
2018-08-23T13:54:16.824Z,4.35
2018-08-23T13:56:48.056Z,5.03
2018-08-23T13:59:18.721Z,4.05
2018-08-23T14:01:49.526Z,3.90
2018-08-23T14:04:20.153Z,4.10
2018-08-23T14:06:50.769Z,4.20
2018-08-23T14:09:21.236Z,4.45
2018-08-23T14:11:52.253Z,4.12
2018-08-23T14:14:22.865Z,4.40
2018-08-23T14:16:53.589Z,4.17
2018-08-23T14:19:24.262Z,3.72
2018-08-23T14:21:54.993Z,4.22
2018-08-23T14:24:25.548Z,3.80
2018-08-23T14:26:56.456Z,4.80
2018-08-23T14:29:27.261Z,5.75
2018-08-23T14:31:58.176Z,4.60
2018-08-23T14:34:28.899Z,4.70
2018-08-23T14:36:59.504Z,4.42
2018-08-23T14:39:30.051Z,3.67
2018-08-23T14:42:00.882Z,4.12
2018-08-23T14:44:31.425Z,3.50
2018-08-23T14:47:06.989Z,3.72
2018-08-23T14:49:37.654Z,4.15
2018-08-23T14:52:08.649Z,4.37
2018-08-23T14:54:41.095Z,4.75
2018-08-23T14:57:16.730Z,4.58
2018-08-23T14:59:47.506Z,3.85
2018-08-23T15:02:18.349Z,5.05
2018-08-23T15:04:49.747Z,5.42
2018-08-23T15:07:20.540Z,4.47
2018-08-23T15:09:51.185Z,4.22
2018-08-23T15:12:21.881Z,4.53
2018-08-23T15:14:52.551Z,4.45
2018-08-23T15:17:23.405Z,4.10
2018-08-23T15:19:54.134Z,4.30
2018-08-23T15:22:25.003Z,4.15
2018-08-23T15:24:55.811Z,4.22
2018-08-23T15:27:29.393Z,3.77
2018-08-23T15:30:00.509Z,3.77
2018-08-23T15:32:31.218Z,4.15
2018-08-23T15:35:01.841Z,4.03
2018-08-23T15:37:32.485Z,3.95
2018-08-23T15:40:03.238Z,4.22
2018-08-23T15:42:34.013Z,3.92
2018-08-23T15:45:04.789Z,3.83
2018-08-23T15:47:35.629Z,3.72
2018-08-23T15:50:06.253Z,3.85
2018-08-23T15:52:37.137Z,4.10
2018-08-23T15:55:08.066Z,3.90
2018-08-23T15:57:39.063Z,4.15
2018-08-23T16:00:10.657Z,3.90
2018-08-23T16:02:41.710Z,4.35
2018-08-23T16:05:12.285Z,4.12
2018-08-23T16:07:43.097Z,4.20
2018-08-23T16:10:13.929Z,4.08
2018-08-23T16:12:44.793Z,3.85
2018-08-23T16:15:21.825Z,3.90
2018-08-23T16:17:57.633Z,4.78
2018-08-23T16:20:33.017Z,4.03
2018-08-23T16:23:03.453Z,4.95
2018-08-23T16:25:38.913Z,4.65
2018-08-23T16:28:09.513Z,3.92
2018-08-23T16:30:42.271Z,5.20
2018-08-23T16:33:13.536Z,3.77
2018-08-23T16:35:44.511Z,3.92
2018-08-23T16:38:15.530Z,3.80
2018-08-23T16:40:46.422Z,3.40
2018-08-23T16:43:17.472Z,3.98
2018-08-23T16:45:47.873Z,4.40
2018-08-23T16:48:18.545Z,5.27
2018-08-23T16:50:49.172Z,3.40
2018-08-23T16:53:19.841Z,4.03
2018-08-23T16:55:50.461Z,3.90
2018-08-23T16:58:21.225Z,3.40
2018-08-23T17:00:51.721Z,3.80
2018-08-23T17:03:22.581Z,3.43
2018-08-23T17:05:53.196Z,3.70
2018-08-23T17:08:23.916Z,3.70
2018-08-23T17:10:54.540Z,5.93
2018-08-23T17:13:30.330Z,3.40
2018-08-23T17:16:05.789Z,3.27
2018-08-23T17:18:36.660Z,3.33
2018-08-23T17:21:07.135Z,3.27
2018-08-23T17:23:38.128Z,3.20
2018-08-23T17:26:08.705Z,3.20
2018-08-23T17:28:39.497Z,3.50
2018-08-23T17:31:10.085Z,3.10
2018-08-23T17:33:40.957Z,2.87
2018-08-23T17:36:11.380Z,3.00
2018-08-23T17:38:42.141Z,2.63
2018-08-23T17:41:12.768Z,3.20
2018-08-23T17:43:43.620Z,2.83
2018-08-23T17:46:14.242Z,3.00
2018-08-23T17:48:44.879Z,2.80
2018-08-23T17:51:15.433Z,2.73
2018-08-23T17:53:46.315Z,3.00
2018-08-23T17:56:16.951Z,4.57
2018-08-23T17:58:53.018Z,3.77
2018-08-23T18:01:23.546Z,2.53
2018-08-23T18:03:54.353Z,2.53
2018-08-23T18:06:25.060Z,2.73
2018-08-23T18:08:55.986Z,6.63
2018-08-23T18:11:26.699Z,4.30
2018-08-23T18:13:57.408Z,5.60
2018-08-23T18:16:32.969Z,2.90
2018-08-23T18:19:03.762Z,3.10
2018-08-23T18:21:34.443Z,2.97
2018-08-23T18:24:05.201Z,3.07
2018-08-23T18:26:35.762Z,2.70
2018-08-23T18:29:06.771Z,3.13
2018-08-23T18:31:37.496Z,3.17
2018-08-23T18:34:08.181Z,3.23
2018-08-23T18:36:39.148Z,2.67
2018-08-23T18:39:11.065Z,4.77
2018-08-23T18:41:41.833Z,3.20
2018-08-23T18:44:12.690Z,3.20
2018-08-23T18:46:43.352Z,2.97
2018-08-23T18:49:14.198Z,3.03
2018-08-23T18:51:44.894Z,3.20
2018-08-23T18:54:15.787Z,3.17
2018-08-23T18:56:46.541Z,3.17
2018-08-23T18:59:17.333Z,3.13
2018-08-23T19:01:48.113Z,2.43
2018-08-23T19:04:18.740Z,3.40
2018-08-23T19:06:49.309Z,2.90
2018-08-23T19:09:20.078Z,2.87
2018-08-23T19:11:50.765Z,2.63
2018-08-23T19:14:21.650Z,3.27
2018-08-23T19:16:57.210Z,2.87
2018-08-23T19:19:27.671Z,2.80
2018-08-23T19:21:58.239Z,2.27
2018-08-23T19:24:29.129Z,2.80
2018-08-23T19:26:59.701Z,2.60
2018-08-23T19:29:30.435Z,2.70
2018-08-23T19:32:01.108Z,2.80
2018-08-23T19:34:31.774Z,2.90
2018-08-23T19:37:03.268Z,2.50
2018-08-23T19:39:33.945Z,3.00
2018-08-23T19:42:04.605Z,2.87
2018-08-23T19:44:39.442Z,2.57
2018-08-23T19:47:14.764Z,2.60
2018-08-23T19:49:54.734Z,2.27
2018-08-23T19:52:25.274Z,2.67
2018-08-23T19:54:55.937Z,2.70
2018-08-23T19:57:26.492Z,2.40
2018-08-23T19:59:57.361Z,2.73
2018-08-23T20:02:27.977Z,2.57
2018-08-23T20:04:58.553Z,2.40
2018-08-23T20:07:29.324Z,2.43
2018-08-23T20:10:00.177Z,2.70
2018-08-23T20:12:30.994Z,2.30
2018-08-23T20:15:01.835Z,2.47
2018-08-23T20:17:32.397Z,2.60
2018-08-23T20:20:03.076Z,2.70
2018-08-23T20:22:33.648Z,2.57
2018-08-23T20:25:04.636Z,2.30
2018-08-23T20:27:35.272Z,2.47
2018-08-23T20:30:06.251Z,2.87
2018-08-23T20:32:37.361Z,3.03
2018-08-23T20:35:08.121Z,2.80
2018-08-23T20:37:38.748Z,2.47
2018-08-23T20:40:10.158Z,2.63
2018-08-23T20:42:40.676Z,2.43
2018-08-23T20:45:11.248Z,2.60
2018-08-23T20:47:41.848Z,2.50
2018-08-23T20:50:12.581Z,2.60
2018-08-23T20:52:43.335Z,2.40
2018-08-23T20:55:14.334Z,2.70
2018-08-23T20:57:44.996Z,2.37
2018-08-23T21:00:15.714Z,2.60
2018-08-23T21:02:46.533Z,2.63
2018-08-23T21:05:17.517Z,2.37
2018-08-23T21:07:50.193Z,2.60
2018-08-23T21:10:21.000Z,2.50
2018-08-23T21:12:51.537Z,3.03
2018-08-23T21:15:22.481Z,2.80
2018-08-23T21:17:53.387Z,2.40
2018-08-23T21:20:23.783Z,2.73
2018-08-23T21:22:54.321Z,2.60
2018-08-23T21:25:25.097Z,2.87
2018-08-23T21:27:55.803Z,2.43
2018-08-23T21:30:26.729Z,2.90
2018-08-23T21:32:57.925Z,2.23
2018-08-23T21:35:28.749Z,2.87
2018-08-23T21:37:59.310Z,2.73
2018-08-23T21:40:30.103Z,2.77
2018-08-23T21:43:00.658Z,2.70
2018-08-23T21:45:31.349Z,2.50
2018-08-23T21:48:01.988Z,3.07
2018-08-23T21:50:32.785Z,3.20
2018-08-23T21:53:03.446Z,2.87
2018-08-23T21:55:36.961Z,2.47
2018-08-23T21:58:09.130Z,2.70
2018-08-23T22:00:44.913Z,3.00
2018-08-23T22:03:15.558Z,2.50
2018-08-23T22:05:46.508Z,2.70
2018-08-23T22:08:17.286Z,2.57
2018-08-23T22:10:48.184Z,2.70
2018-08-23T22:13:18.897Z,2.73
2018-08-23T22:15:50.493Z,2.90
2018-08-23T22:18:21.116Z,2.47
2018-08-23T22:20:51.989Z,2.50
2018-08-23T22:23:22.725Z,2.50
2018-08-23T22:25:53.415Z,3.03
2018-08-23T22:28:24.217Z,2.70
2018-08-23T22:30:55.045Z,2.70
2018-08-23T22:33:25.650Z,2.13
2018-08-23T22:35:56.456Z,2.70
2018-08-23T22:38:27.212Z,2.37
2018-08-23T22:40:58.361Z,2.63
2018-08-23T22:43:28.965Z,2.80
2018-08-23T22:45:59.409Z,2.77
2018-08-23T22:48:29.880Z,2.90
2018-08-23T22:51:00.785Z,2.97
2018-08-23T22:53:31.336Z,2.80
2018-08-23T22:56:02.183Z,2.73
2018-08-23T22:58:32.689Z,1.80
2018-08-23T23:01:03.345Z,2.27
2018-08-23T23:03:39.028Z,2.30
2018-08-23T23:06:09.836Z,2.30
2018-08-23T23:08:40.522Z,2.70
2018-08-23T23:11:11.285Z,2.60
2018-08-23T23:13:41.997Z,2.33
2018-08-23T23:16:12.846Z,2.57
2018-08-23T23:18:43.461Z,2.10
2018-08-23T23:21:14.181Z,2.80
2018-08-23T23:23:44.717Z,2.73
2018-08-23T23:26:15.420Z,3.57
2018-08-23T23:28:46.128Z,3.10
2018-08-23T23:31:16.946Z,2.87
2018-08-23T23:33:47.645Z,2.73
2018-08-23T23:36:18.401Z,3.00
2018-08-23T23:38:48.941Z,3.07
2018-08-23T23:41:19.820Z,2.93
2018-08-23T23:43:50.334Z,3.47
2018-08-23T23:46:21.027Z,2.63
2018-08-23T23:48:51.692Z,2.27
2018-08-23T23:51:22.506Z,3.10
2018-08-23T23:53:53.090Z,2.77
2018-08-23T23:56:24.146Z,2.80
2018-08-23T23:58:54.713Z,2.70
